sensor_id;sensor_type;location;lat;lon;timestamp;P1;durP1;ratioP1;P2;durP2;ratioP2
73593;SDS011;64760;53.404;23.498;2023-09-18T00:00:29;13.60;;;8.55;;
73593;SDS011;64760;53.404;23.498;2023-09-18T00:03:17;14.77;;;9.18;;
73593;SDS011;64760;53.404;23.498;2023-09-18T00:05:48;14.18;;;8.50;;
73593;SDS011;64760;53.404;23.498;2023-09-18T00:08:15;19.70;;;11.38;;
73593;SDS011;64760;53.404;23.498;2023-09-18T00:10:46;17.20;;;9.75;;
73593;SDS011;64760;53.404;23.498;2023-09-18T00:13:15;18.13;;;9.98;;
73593;SDS011;64760;53.404;23.498;2023-09-18T00:15:41;15.38;;;9.32;;
73593;SDS011;64760;53.404;23.498;2023-09-18T00:18:10;14.65;;;9.10;;
73593;SDS011;64760;53.404;23.498;2023-09-18T00:20:37;15.82;;;9.07;;
73593;SDS011;64760;53.404;23.498;2023-09-18T00:23:03;16.98;;;9.93;;
73593;SDS011;64760;53.404;23.498;2023-09-18T00:25:31;15.90;;;9.48;;
73593;SDS011;64760;53.404;23.498;2023-09-18T00:27:58;16.83;;;9.23;;
73593;SDS011;64760;53.404;23.498;2023-09-18T00:30:26;18.20;;;11.15;;
73593;SDS011;64760;53.404;23.498;2023-09-18T00:32:53;15.60;;;9.68;;
73593;SDS011;64760;53.404;23.498;2023-09-18T00:35:19;17.83;;;10.38;;
73593;SDS011;64760;53.404;23.498;2023-09-18T00:37:46;17.70;;;10.13;;
73593;SDS011;64760;53.404;23.498;2023-09-18T00:40:12;25.85;;;13.73;;
73593;SDS011;64760;53.404;23.498;2023-09-18T00:42:39;14.90;;;9.65;;
73593;SDS011;64760;53.404;23.498;2023-09-18T00:45:05;14.65;;;8.70;;
73593;SDS011;64760;53.404;23.498;2023-09-18T00:47:32;18.42;;;10.80;;
73593;SDS011;64760;53.404;23.498;2023-09-18T00:49:59;17.25;;;9.93;;
73593;SDS011;64760;53.404;23.498;2023-09-18T00:52:26;14.57;;;9.70;;
73593;SDS011;64760;53.404;23.498;2023-09-18T00:54:53;15.70;;;8.55;;
73593;SDS011;64760;53.404;23.498;2023-09-18T00:57:21;23.35;;;12.00;;
73593;SDS011;64760;53.404;23.498;2023-09-18T00:59:48;23.17;;;13.20;;
73593;SDS011;64760;53.404;23.498;2023-09-18T01:02:15;14.25;;;8.60;;
73593;SDS011;64760;53.404;23.498;2023-09-18T01:04:41;13.88;;;8.57;;
73593;SDS011;64760;53.404;23.498;2023-09-18T01:07:10;15.35;;;8.57;;
73593;SDS011;64760;53.404;23.498;2023-09-18T01:09:36;14.15;;;8.02;;
73593;SDS011;64760;53.404;23.498;2023-09-18T01:17:23;17.20;;;9.27;;
73593;SDS011;64760;53.404;23.498;2023-09-18T01:19:50;14.70;;;8.48;;
73593;SDS011;64760;53.404;23.498;2023-09-18T01:22:17;13.85;;;8.90;;
73593;SDS011;64760;53.404;23.498;2023-09-18T01:24:45;17.88;;;10.18;;
73593;SDS011;64760;53.404;23.498;2023-09-18T01:27:15;17.88;;;9.43;;
73593;SDS011;64760;53.404;23.498;2023-09-18T01:29:43;16.48;;;9.02;;
73593;SDS011;64760;53.404;23.498;2023-09-18T01:32:13;15.68;;;9.38;;
73593;SDS011;64760;53.404;23.498;2023-09-18T01:34:50;17.85;;;9.05;;
73593;SDS011;64760;53.404;23.498;2023-09-18T01:37:19;15.77;;;9.80;;
73593;SDS011;64760;53.404;23.498;2023-09-18T01:39:49;19.02;;;10.25;;
73593;SDS011;64760;53.404;23.498;2023-09-18T01:42:16;15.02;;;8.77;;
73593;SDS011;64760;53.404;23.498;2023-09-18T01:44:44;14.57;;;8.73;;
73593;SDS011;64760;53.404;23.498;2023-09-18T01:47:12;16.08;;;7.28;;
73593;SDS011;64760;53.404;23.498;2023-09-18T01:49:40;14.80;;;8.45;;
73593;SDS011;64760;53.404;23.498;2023-09-18T01:52:08;16.95;;;8.65;;
73593;SDS011;64760;53.404;23.498;2023-09-18T01:54:36;14.02;;;8.80;;
73593;SDS011;64760;53.404;23.498;2023-09-18T01:57:03;12.98;;;8.05;;
73593;SDS011;64760;53.404;23.498;2023-09-18T02:01:57;12.30;;;7.43;;
73593;SDS011;64760;53.404;23.498;2023-09-18T02:04:23;13.63;;;7.90;;
73593;SDS011;64760;53.404;23.498;2023-09-18T02:06:51;16.40;;;8.32;;
73593;SDS011;64760;53.404;23.498;2023-09-18T02:09:18;15.98;;;8.13;;
73593;SDS011;64760;53.404;23.498;2023-09-18T02:11:45;15.02;;;8.93;;
73593;SDS011;64760;53.404;23.498;2023-09-18T02:14:14;15.63;;;8.63;;
73593;SDS011;64760;53.404;23.498;2023-09-18T02:16:41;17.20;;;9.30;;
73593;SDS011;64760;53.404;23.498;2023-09-18T02:19:09;17.75;;;10.20;;
73593;SDS011;64760;53.404;23.498;2023-09-18T02:21:37;17.42;;;10.52;;
73593;SDS011;64760;53.404;23.498;2023-09-18T02:24:05;18.92;;;9.98;;
73593;SDS011;64760;53.404;23.498;2023-09-18T02:26:32;18.00;;;11.18;;
73593;SDS011;64760;53.404;23.498;2023-09-18T02:29:00;19.38;;;10.88;;
73593;SDS011;64760;53.404;23.498;2023-09-18T02:31:31;20.58;;;12.43;;
73593;SDS011;64760;53.404;23.498;2023-09-18T02:33:58;17.40;;;10.75;;
73593;SDS011;64760;53.404;23.498;2023-09-18T02:36:25;17.15;;;10.77;;
73593;SDS011;64760;53.404;23.498;2023-09-18T02:38:51;18.65;;;10.63;;
73593;SDS011;64760;53.404;23.498;2023-09-18T02:45:12;21.73;;;11.60;;
73593;SDS011;64760;53.404;23.498;2023-09-18T02:47:39;19.58;;;11.32;;
73593;SDS011;64760;53.404;23.498;2023-09-18T02:50:07;19.33;;;10.98;;
73593;SDS011;64760;53.404;23.498;2023-09-18T02:52:34;17.42;;;10.35;;
73593;SDS011;64760;53.404;23.498;2023-09-18T02:55:00;16.08;;;8.88;;
73593;SDS011;64760;53.404;23.498;2023-09-18T02:57:27;17.65;;;9.55;;
73593;SDS011;64760;53.404;23.498;2023-09-18T02:59:53;15.65;;;9.20;;
73593;SDS011;64760;53.404;23.498;2023-09-18T03:02:19;15.07;;;9.10;;
73593;SDS011;64760;53.404;23.498;2023-09-18T03:04:46;13.82;;;7.90;;
73593;SDS011;64760;53.404;23.498;2023-09-18T03:07:12;14.70;;;9.02;;
73593;SDS011;64760;53.404;23.498;2023-09-18T03:09:39;14.45;;;8.55;;
73593;SDS011;64760;53.404;23.498;2023-09-18T03:12:05;14.00;;;8.25;;
73593;SDS011;64760;53.404;23.498;2023-09-18T03:14:32;15.15;;;8.50;;
73593;SDS011;64760;53.404;23.498;2023-09-18T03:16:58;16.77;;;8.73;;
73593;SDS011;64760;53.404;23.498;2023-09-18T03:19:24;27.50;;;12.73;;
73593;SDS011;64760;53.404;23.498;2023-09-18T03:21:53;22.00;;;11.52;;
73593;SDS011;64760;53.404;23.498;2023-09-18T03:24:19;21.40;;;11.50;;
73593;SDS011;64760;53.404;23.498;2023-09-18T03:26:46;20.35;;;10.20;;
73593;SDS011;64760;53.404;23.498;2023-09-18T03:29:12;16.35;;;9.90;;
73593;SDS011;64760;53.404;23.498;2023-09-18T03:31:39;18.13;;;10.82;;
73593;SDS011;64760;53.404;23.498;2023-09-18T03:34:05;19.98;;;11.25;;
73593;SDS011;64760;53.404;23.498;2023-09-18T03:36:31;19.48;;;10.80;;
73593;SDS011;64760;53.404;23.498;2023-09-18T03:38:59;20.50;;;12.63;;
73593;SDS011;64760;53.404;23.498;2023-09-18T03:41:25;21.38;;;13.23;;
73593;SDS011;64760;53.404;23.498;2023-09-18T03:43:51;27.30;;;15.00;;
73593;SDS011;64760;53.404;23.498;2023-09-18T03:46:18;26.20;;;14.80;;
73593;SDS011;64760;53.404;23.498;2023-09-18T03:48:52;22.83;;;13.30;;
73593;SDS011;64760;53.404;23.498;2023-09-18T03:51:19;22.80;;;13.15;;
73593;SDS011;64760;53.404;23.498;2023-09-18T03:53:57;24.90;;;13.48;;
73593;SDS011;64760;53.404;23.498;2023-09-18T03:56:24;24.60;;;13.68;;
73593;SDS011;64760;53.404;23.498;2023-09-18T03:58:50;21.25;;;11.93;;
73593;SDS011;64760;53.404;23.498;2023-09-18T04:01:17;20.40;;;11.27;;
73593;SDS011;64760;53.404;23.498;2023-09-18T04:03:43;21.83;;;11.55;;
73593;SDS011;64760;53.404;23.498;2023-09-18T04:06:10;19.73;;;11.02;;
73593;SDS011;64760;53.404;23.498;2023-09-18T04:08:36;17.30;;;11.70;;
73593;SDS011;64760;53.404;23.498;2023-09-18T04:11:02;18.50;;;11.00;;
73593;SDS011;64760;53.404;23.498;2023-09-18T04:13:30;21.92;;;11.02;;
73593;SDS011;64760;53.404;23.498;2023-09-18T04:15:56;18.17;;;10.70;;
73593;SDS011;64760;53.404;23.498;2023-09-18T04:18:23;19.50;;;11.15;;
73593;SDS011;64760;53.404;23.498;2023-09-18T04:20:50;16.55;;;10.95;;
73593;SDS011;64760;53.404;23.498;2023-09-18T04:25:53;17.52;;;10.75;;
73593;SDS011;64760;53.404;23.498;2023-09-18T04:28:21;20.70;;;10.95;;
73593;SDS011;64760;53.404;23.498;2023-09-18T04:30:48;17.40;;;10.32;;
73593;SDS011;64760;53.404;23.498;2023-09-18T04:33:15;20.83;;;11.57;;
73593;SDS011;64760;53.404;23.498;2023-09-18T04:35:43;19.92;;;11.48;;
73593;SDS011;64760;53.404;23.498;2023-09-18T04:38:10;21.77;;;12.57;;
73593;SDS011;64760;53.404;23.498;2023-09-18T04:40:37;18.23;;;11.30;;
73593;SDS011;64760;53.404;23.498;2023-09-18T04:43:04;18.83;;;10.82;;
73593;SDS011;64760;53.404;23.498;2023-09-18T04:45:33;16.50;;;11.48;;
73593;SDS011;64760;53.404;23.498;2023-09-18T04:47:59;19.58;;;11.43;;
73593;SDS011;64760;53.404;23.498;2023-09-18T04:50:26;22.95;;;15.07;;
73593;SDS011;64760;53.404;23.498;2023-09-18T04:52:53;24.98;;;16.30;;
73593;SDS011;64760;53.404;23.498;2023-09-18T04:55:21;20.42;;;12.30;;
73593;SDS011;64760;53.404;23.498;2023-09-18T04:57:47;19.67;;;11.57;;
73593;SDS011;64760;53.404;23.498;2023-09-18T05:00:15;19.90;;;12.38;;
73593;SDS011;64760;53.404;23.498;2023-09-18T05:02:42;20.02;;;11.52;;
73593;SDS011;64760;53.404;23.498;2023-09-18T05:05:08;17.83;;;11.25;;
73593;SDS011;64760;53.404;23.498;2023-09-18T05:07:35;17.38;;;10.75;;
73593;SDS011;64760;53.404;23.498;2023-09-18T05:10:02;17.83;;;11.73;;
73593;SDS011;64760;53.404;23.498;2023-09-18T05:12:30;22.40;;;11.98;;
73593;SDS011;64760;53.404;23.498;2023-09-18T05:14:56;23.48;;;13.50;;
73593;SDS011;64760;53.404;23.498;2023-09-18T05:17:39;20.65;;;12.07;;
73593;SDS011;64760;53.404;23.498;2023-09-18T05:20:10;23.77;;;12.38;;
73593;SDS011;64760;53.404;23.498;2023-09-18T05:22:39;20.55;;;10.77;;
73593;SDS011;64760;53.404;23.498;2023-09-18T05:27:36;18.90;;;11.40;;
73593;SDS011;64760;53.404;23.498;2023-09-18T05:30:19;20.08;;;11.05;;
73593;SDS011;64760;53.404;23.498;2023-09-18T05:32:54;20.70;;;10.98;;
73593;SDS011;64760;53.404;23.498;2023-09-18T05:35:21;19.73;;;12.43;;
73593;SDS011;64760;53.404;23.498;2023-09-18T05:41:43;20.58;;;12.25;;
73593;SDS011;64760;53.404;23.498;2023-09-18T05:44:09;20.60;;;12.30;;
73593;SDS011;64760;53.404;23.498;2023-09-18T05:46:36;17.10;;;10.80;;
73593;SDS011;64760;53.404;23.498;2023-09-18T05:49:03;21.58;;;12.55;;
73593;SDS011;64760;53.404;23.498;2023-09-18T05:51:30;20.88;;;12.00;;
73593;SDS011;64760;53.404;23.498;2023-09-18T05:53:59;19.88;;;12.13;;
73593;SDS011;64760;53.404;23.498;2023-09-18T05:56:25;21.83;;;12.60;;
73593;SDS011;64760;53.404;23.498;2023-09-18T05:58:52;22.42;;;12.02;;
73593;SDS011;64760;53.404;23.498;2023-09-18T06:01:18;22.65;;;12.43;;
73593;SDS011;64760;53.404;23.498;2023-09-18T06:03:45;21.25;;;11.63;;
73593;SDS011;64760;53.404;23.498;2023-09-18T06:06:11;19.08;;;12.68;;
73593;SDS011;64760;53.404;23.498;2023-09-18T06:08:38;19.65;;;12.00;;
73593;SDS011;64760;53.404;23.498;2023-09-18T06:11:06;19.67;;;10.70;;
73593;SDS011;64760;53.404;23.498;2023-09-18T06:13:33;17.10;;;10.80;;
73593;SDS011;64760;53.404;23.498;2023-09-18T06:16:00;18.52;;;11.48;;
73593;SDS011;64760;53.404;23.498;2023-09-18T06:18:33;19.73;;;11.20;;
73593;SDS011;64760;53.404;23.498;2023-09-18T06:21:01;18.95;;;12.15;;
73593;SDS011;64760;53.404;23.498;2023-09-18T06:23:27;19.17;;;10.30;;
73593;SDS011;64760;53.404;23.498;2023-09-18T06:25:54;17.67;;;10.52;;
73593;SDS011;64760;53.404;23.498;2023-09-18T06:28:22;19.67;;;11.55;;
73593;SDS011;64760;53.404;23.498;2023-09-18T06:30:49;20.10;;;10.70;;
73593;SDS011;64760;53.404;23.498;2023-09-18T06:33:18;20.77;;;11.27;;
73593;SDS011;64760;53.404;23.498;2023-09-18T06:35:44;16.58;;;10.55;;
73593;SDS011;64760;53.404;23.498;2023-09-18T06:38:10;16.13;;;11.10;;
73593;SDS011;64760;53.404;23.498;2023-09-18T06:40:39;19.17;;;11.30;;
73593;SDS011;64760;53.404;23.498;2023-09-18T06:45:38;15.93;;;9.95;;
73593;SDS011;64760;53.404;23.498;2023-09-18T06:48:05;18.20;;;11.43;;
73593;SDS011;64760;53.404;23.498;2023-09-18T06:50:31;16.85;;;10.32;;
73593;SDS011;64760;53.404;23.498;2023-09-18T06:52:58;15.13;;;10.07;;
73593;SDS011;64760;53.404;23.498;2023-09-18T06:55:24;13.95;;;9.68;;
73593;SDS011;64760;53.404;23.498;2023-09-18T06:57:51;14.18;;;9.50;;
73593;SDS011;64760;53.404;23.498;2023-09-18T07:00:17;13.38;;;9.57;;
73593;SDS011;64760;53.404;23.498;2023-09-18T07:02:46;14.90;;;9.63;;
73593;SDS011;64760;53.404;23.498;2023-09-18T07:05:12;14.10;;;9.27;;
73593;SDS011;64760;53.404;23.498;2023-09-18T07:07:39;14.18;;;8.73;;
73593;SDS011;64760;53.404;23.498;2023-09-18T07:10:05;16.65;;;8.90;;
73593;SDS011;64760;53.404;23.498;2023-09-18T07:12:32;14.50;;;8.73;;
73593;SDS011;64760;53.404;23.498;2023-09-18T07:15:02;14.85;;;9.25;;
73593;SDS011;64760;53.404;23.498;2023-09-18T07:17:30;11.85;;;8.80;;
73593;SDS011;64760;53.404;23.498;2023-09-18T07:19:56;19.92;;;8.63;;
73593;SDS011;64760;53.404;23.498;2023-09-18T07:22:23;14.93;;;7.90;;
73593;SDS011;64760;53.404;23.498;2023-09-18T07:24:49;12.18;;;7.78;;
73593;SDS011;64760;53.404;23.498;2023-09-18T07:27:16;15.40;;;8.15;;
73593;SDS011;64760;53.404;23.498;2023-09-18T07:29:42;15.43;;;8.43;;
73593;SDS011;64760;53.404;23.498;2023-09-18T07:32:09;11.63;;;8.02;;
73593;SDS011;64760;53.404;23.498;2023-09-18T07:34:35;11.20;;;8.07;;
73593;SDS011;64760;53.404;23.498;2023-09-18T07:37:02;10.80;;;7.05;;
73593;SDS011;64760;53.404;23.498;2023-09-18T07:39:28;10.07;;;7.72;;
73593;SDS011;64760;53.404;23.498;2023-09-18T07:41:55;11.23;;;7.68;;
73593;SDS011;64760;53.404;23.498;2023-09-18T07:44:21;11.05;;;7.82;;
73593;SDS011;64760;53.404;23.498;2023-09-18T07:46:48;13.10;;;8.10;;
73593;SDS011;64760;53.404;23.498;2023-09-18T07:49:14;11.10;;;8.27;;
73593;SDS011;64760;53.404;23.498;2023-09-18T07:51:42;11.35;;;7.30;;
73593;SDS011;64760;53.404;23.498;2023-09-18T07:54:09;10.75;;;7.10;;
73593;SDS011;64760;53.404;23.498;2023-09-18T07:56:40;11.90;;;7.53;;
73593;SDS011;64760;53.404;23.498;2023-09-18T07:59:06;11.93;;;7.30;;
73593;SDS011;64760;53.404;23.498;2023-09-18T08:01:33;10.88;;;6.90;;
73593;SDS011;64760;53.404;23.498;2023-09-18T08:04:00;11.38;;;7.40;;
73593;SDS011;64760;53.404;23.498;2023-09-18T08:06:27;9.77;;;6.80;;
73593;SDS011;64760;53.404;23.498;2023-09-18T08:11:20;12.55;;;7.43;;
73593;SDS011;64760;53.404;23.498;2023-09-18T08:13:47;13.07;;;7.72;;
73593;SDS011;64760;53.404;23.498;2023-09-18T08:16:14;10.80;;;6.80;;
73593;SDS011;64760;53.404;23.498;2023-09-18T08:22:35;14.68;;;7.93;;
73593;SDS011;64760;53.404;23.498;2023-09-18T08:25:02;11.02;;;7.03;;
73593;SDS011;64760;53.404;23.498;2023-09-18T08:27:30;13.27;;;6.32;;
73593;SDS011;64760;53.404;23.498;2023-09-18T08:29:56;11.48;;;6.30;;
73593;SDS011;64760;53.404;23.498;2023-09-18T08:32:23;10.63;;;6.53;;
73593;SDS011;64760;53.404;23.498;2023-09-18T08:34:49;11.70;;;7.45;;
73593;SDS011;64760;53.404;23.498;2023-09-18T08:37:15;9.27;;;6.40;;
73593;SDS011;64760;53.404;23.498;2023-09-18T08:39:42;10.00;;;6.85;;
73593;SDS011;64760;53.404;23.498;2023-09-18T08:42:08;9.57;;;6.13;;
73593;SDS011;64760;53.404;23.498;2023-09-18T08:44:37;10.07;;;6.53;;
73593;SDS011;64760;53.404;23.498;2023-09-18T08:47:06;8.70;;;5.60;;
73593;SDS011;64760;53.404;23.498;2023-09-18T08:49:35;9.88;;;6.03;;
73593;SDS011;64760;53.404;23.498;2023-09-18T08:52:02;10.98;;;5.90;;
73593;SDS011;64760;53.404;23.498;2023-09-18T08:54:28;8.88;;;6.22;;
73593;SDS011;64760;53.404;23.498;2023-09-18T08:56:55;9.50;;;6.35;;
73593;SDS011;64760;53.404;23.498;2023-09-18T08:59:22;8.73;;;6.28;;
73593;SDS011;64760;53.404;23.498;2023-09-18T09:01:51;9.02;;;5.90;;
73593;SDS011;64760;53.404;23.498;2023-09-18T09:04:17;8.98;;;5.43;;
73593;SDS011;64760;53.404;23.498;2023-09-18T09:06:44;7.50;;;5.53;;
73593;SDS011;64760;53.404;23.498;2023-09-18T09:09:10;7.63;;;5.30;;
73593;SDS011;64760;53.404;23.498;2023-09-18T09:11:39;8.50;;;5.75;;
73593;SDS011;64760;53.404;23.498;2023-09-18T09:14:09;8.15;;;5.47;;
73593;SDS011;64760;53.404;23.498;2023-09-18T09:16:40;13.27;;;8.27;;
73593;SDS011;64760;53.404;23.498;2023-09-18T09:19:12;7.53;;;5.15;;
73593;SDS011;64760;53.404;23.498;2023-09-18T09:21:39;7.88;;;4.63;;
73593;SDS011;64760;53.404;23.498;2023-09-18T09:24:06;7.22;;;4.78;;
73593;SDS011;64760;53.404;23.498;2023-09-18T09:26:32;6.55;;;4.82;;
73593;SDS011;64760;53.404;23.498;2023-09-18T09:29:09;8.80;;;5.55;;
73593;SDS011;64760;53.404;23.498;2023-09-18T09:31:41;9.50;;;5.63;;
73593;SDS011;64760;53.404;23.498;2023-09-18T09:34:24;9.43;;;6.07;;
73593;SDS011;64760;53.404;23.498;2023-09-18T09:36:53;9.55;;;5.88;;
73593;SDS011;64760;53.404;23.498;2023-09-18T09:39:22;10.32;;;5.97;;
73593;SDS011;64760;53.404;23.498;2023-09-18T09:41:51;7.80;;;6.20;;
73593;SDS011;64760;53.404;23.498;2023-09-18T09:44:18;18.23;;;14.02;;
73593;SDS011;64760;53.404;23.498;2023-09-18T09:46:47;7.68;;;4.97;;
73593;SDS011;64760;53.404;23.498;2023-09-18T09:49:15;7.45;;;5.15;;
73593;SDS011;64760;53.404;23.498;2023-09-18T09:51:46;6.55;;;4.88;;
73593;SDS011;64760;53.404;23.498;2023-09-18T09:54:12;6.90;;;5.05;;
73593;SDS011;64760;53.404;23.498;2023-09-18T09:56:47;7.60;;;5.28;;
73593;SDS011;64760;53.404;23.498;2023-09-18T09:59:16;6.53;;;4.82;;
73593;SDS011;64760;53.404;23.498;2023-09-18T10:01:46;9.20;;;5.40;;
73593;SDS011;64760;53.404;23.498;2023-09-18T10:04:15;12.00;;;5.15;;
73593;SDS011;64760;53.404;23.498;2023-09-18T10:06:44;6.75;;;5.15;;
73593;SDS011;64760;53.404;23.498;2023-09-18T10:09:19;7.10;;;4.53;;
73593;SDS011;64760;53.404;23.498;2023-09-18T10:11:49;6.80;;;5.18;;
73593;SDS011;64760;53.404;23.498;2023-09-18T10:14:19;9.70;;;5.40;;
73593;SDS011;64760;53.404;23.498;2023-09-18T10:16:51;6.78;;;4.82;;
73593;SDS011;64760;53.404;23.498;2023-09-18T10:25:13;7.15;;;5.15;;
73593;SDS011;64760;53.404;23.498;2023-09-18T10:27:47;6.43;;;4.45;;
73593;SDS011;64760;53.404;23.498;2023-09-18T10:30:25;7.20;;;5.30;;
73593;SDS011;64760;53.404;23.498;2023-09-18T10:32:53;6.63;;;4.72;;
73593;SDS011;64760;53.404;23.498;2023-09-18T10:35:20;6.88;;;4.63;;
73593;SDS011;64760;53.404;23.498;2023-09-18T10:40:25;5.60;;;4.57;;
73593;SDS011;64760;53.404;23.498;2023-09-18T10:42:58;7.15;;;4.90;;
73593;SDS011;64760;53.404;23.498;2023-09-18T10:45:38;5.63;;;4.13;;
73593;SDS011;64760;53.404;23.498;2023-09-18T10:48:06;5.22;;;4.15;;
73593;SDS011;64760;53.404;23.498;2023-09-18T10:50:34;10.45;;;4.88;;
73593;SDS011;64760;53.404;23.498;2023-09-18T10:53:01;7.03;;;4.85;;
73593;SDS011;64760;53.404;23.498;2023-09-18T10:59:22;6.40;;;4.57;;
73593;SDS011;64760;53.404;23.498;2023-09-18T11:01:50;6.20;;;4.60;;
73593;SDS011;64760;53.404;23.498;2023-09-18T11:04:19;8.52;;;5.07;;
73593;SDS011;64760;53.404;23.498;2023-09-18T11:09:28;5.80;;;4.38;;
73593;SDS011;64760;53.404;23.498;2023-09-18T11:20:24;6.13;;;4.88;;
73593;SDS011;64760;53.404;23.498;2023-09-18T11:28:24;8.52;;;4.95;;
73593;SDS011;64760;53.404;23.498;2023-09-18T11:30:52;7.18;;;4.70;;
73593;SDS011;64760;53.404;23.498;2023-09-18T11:33:35;5.80;;;4.38;;
73593;SDS011;64760;53.404;23.498;2023-09-18T11:36:04;7.80;;;4.82;;
73593;SDS011;64760;53.404;23.498;2023-09-18T11:41:25;6.85;;;4.75;;
73593;SDS011;64760;53.404;23.498;2023-09-18T11:46:39;5.68;;;4.40;;
73593;SDS011;64760;53.404;23.498;2023-09-18T11:49:12;7.45;;;4.82;;
73593;SDS011;64760;53.404;23.498;2023-09-18T11:51:40;7.40;;;4.80;;
73593;SDS011;64760;53.404;23.498;2023-09-18T11:54:07;6.68;;;4.60;;
73593;SDS011;64760;53.404;23.498;2023-09-18T11:56:35;7.80;;;4.60;;
73593;SDS011;64760;53.404;23.498;2023-09-18T11:59:02;6.57;;;4.85;;
73593;SDS011;64760;53.404;23.498;2023-09-18T12:01:31;8.65;;;5.28;;
73593;SDS011;64760;53.404;23.498;2023-09-18T12:04:03;7.82;;;5.63;;
73593;SDS011;64760;53.404;23.498;2023-09-18T12:06:39;7.65;;;5.32;;
73593;SDS011;64760;53.404;23.498;2023-09-18T12:09:07;7.88;;;5.15;;
73593;SDS011;64760;53.404;23.498;2023-09-18T12:11:37;7.32;;;5.85;;
73593;SDS011;64760;53.404;23.498;2023-09-18T12:14:08;6.80;;;5.30;;
73593;SDS011;64760;53.404;23.498;2023-09-18T12:16:38;9.00;;;5.15;;
73593;SDS011;64760;53.404;23.498;2023-09-18T12:19:06;6.50;;;5.15;;
73593;SDS011;64760;53.404;23.498;2023-09-18T12:21:45;8.13;;;5.25;;
73593;SDS011;64760;53.404;23.498;2023-09-18T12:24:21;9.73;;;5.75;;
73593;SDS011;64760;53.404;23.498;2023-09-18T12:26:49;9.63;;;5.82;;
73593;SDS011;64760;53.404;23.498;2023-09-18T12:29:17;12.10;;;5.40;;
73593;SDS011;64760;53.404;23.498;2023-09-18T12:31:45;7.15;;;5.10;;
73593;SDS011;64760;53.404;23.498;2023-09-18T12:34:22;17.55;;;5.60;;
73593;SDS011;64760;53.404;23.498;2023-09-18T12:36:49;8.43;;;5.55;;
73593;SDS011;64760;53.404;23.498;2023-09-18T12:39:17;6.65;;;5.05;;
73593;SDS011;64760;53.404;23.498;2023-09-18T12:41:47;6.57;;;5.10;;
73593;SDS011;64760;53.404;23.498;2023-09-18T12:44:14;7.85;;;5.25;;
73593;SDS011;64760;53.404;23.498;2023-09-18T12:46:42;8.23;;;5.00;;
73593;SDS011;64760;53.404;23.498;2023-09-18T12:51:56;8.05;;;5.85;;
73593;SDS011;64760;53.404;23.498;2023-09-18T12:54:43;6.30;;;4.78;;
73593;SDS011;64760;53.404;23.498;2023-09-18T12:57:14;7.13;;;5.28;;
73593;SDS011;64760;53.404;23.498;2023-09-18T12:59:42;9.82;;;5.72;;
73593;SDS011;64760;53.404;23.498;2023-09-18T13:02:08;7.32;;;5.32;;
73593;SDS011;64760;53.404;23.498;2023-09-18T13:04:40;6.50;;;4.97;;
73593;SDS011;64760;53.404;23.498;2023-09-18T13:07:07;7.65;;;5.18;;
73593;SDS011;64760;53.404;23.498;2023-09-18T13:09:35;7.70;;;5.85;;
73593;SDS011;64760;53.404;23.498;2023-09-18T13:12:03;8.70;;;5.82;;
73593;SDS011;64760;53.404;23.498;2023-09-18T13:14:56;6.90;;;5.25;;
73593;SDS011;64760;53.404;23.498;2023-09-18T13:17:42;7.20;;;5.53;;
73593;SDS011;64760;53.404;23.498;2023-09-18T13:20:29;8.00;;;5.47;;
73593;SDS011;64760;53.404;23.498;2023-09-18T13:22:59;8.18;;;4.85;;
73593;SDS011;64760;53.404;23.498;2023-09-18T13:30:53;8.25;;;6.03;;
73593;SDS011;64760;53.404;23.498;2023-09-18T13:33:22;8.35;;;5.30;;
73593;SDS011;64760;53.404;23.498;2023-09-18T13:35:53;7.78;;;5.78;;
73593;SDS011;64760;53.404;23.498;2023-09-18T13:38:23;9.32;;;6.57;;
73593;SDS011;64760;53.404;23.498;2023-09-18T13:40:55;7.40;;;5.65;;
73593;SDS011;64760;53.404;23.498;2023-09-18T13:43:22;6.78;;;5.72;;
73593;SDS011;64760;53.404;23.498;2023-09-18T13:45:52;7.55;;;5.30;;
73593;SDS011;64760;53.404;23.498;2023-09-18T13:48:23;9.68;;;6.25;;
73593;SDS011;64760;53.404;23.498;2023-09-18T13:50:52;9.50;;;5.82;;
73593;SDS011;64760;53.404;23.498;2023-09-18T13:53:19;11.32;;;5.80;;
73593;SDS011;64760;53.404;23.498;2023-09-18T13:55:49;10.35;;;5.82;;
73593;SDS011;64760;53.404;23.498;2023-09-18T13:58:16;10.38;;;6.25;;
73593;SDS011;64760;53.404;23.498;2023-09-18T14:00:43;13.05;;;9.00;;
73593;SDS011;64760;53.404;23.498;2023-09-18T14:03:10;10.50;;;6.93;;
73593;SDS011;64760;53.404;23.498;2023-09-18T14:05:38;10.15;;;5.55;;
73593;SDS011;64760;53.404;23.498;2023-09-18T14:08:05;8.50;;;5.90;;
73593;SDS011;64760;53.404;23.498;2023-09-18T14:10:31;10.02;;;6.32;;
73593;SDS011;64760;53.404;23.498;2023-09-18T14:12:58;7.28;;;5.68;;
73593;SDS011;64760;53.404;23.498;2023-09-18T14:15:25;8.38;;;5.43;;
73593;SDS011;64760;53.404;23.498;2023-09-18T14:17:55;7.63;;;5.05;;
73593;SDS011;64760;53.404;23.498;2023-09-18T14:20:23;8.43;;;6.00;;
73593;SDS011;64760;53.404;23.498;2023-09-18T14:22:50;8.02;;;5.38;;
73593;SDS011;64760;53.404;23.498;2023-09-18T14:25:17;7.97;;;5.88;;
73593;SDS011;64760;53.404;23.498;2023-09-18T14:27:46;7.75;;;5.18;;
73593;SDS011;64760;53.404;23.498;2023-09-18T14:30:13;6.35;;;5.05;;
73593;SDS011;64760;53.404;23.498;2023-09-18T14:32:40;8.02;;;5.45;;
73593;SDS011;64760;53.404;23.498;2023-09-18T14:35:07;7.50;;;5.22;;
73593;SDS011;64760;53.404;23.498;2023-09-18T14:37:35;8.27;;;5.68;;
73593;SDS011;64760;53.404;23.498;2023-09-18T14:40:02;7.10;;;5.10;;
73593;SDS011;64760;53.404;23.498;2023-09-18T14:42:30;7.60;;;6.20;;
73593;SDS011;64760;53.404;23.498;2023-09-18T14:44:57;7.63;;;5.53;;
73593;SDS011;64760;53.404;23.498;2023-09-18T14:47:23;6.97;;;5.55;;
73593;SDS011;64760;53.404;23.498;2023-09-18T14:49:51;10.13;;;6.10;;
73593;SDS011;64760;53.404;23.498;2023-09-18T14:52:18;9.57;;;5.85;;
73593;SDS011;64760;53.404;23.498;2023-09-18T14:54:50;6.78;;;5.30;;
73593;SDS011;64760;53.404;23.498;2023-09-18T14:57:17;8.13;;;4.90;;
73593;SDS011;64760;53.404;23.498;2023-09-18T14:59:44;8.73;;;6.45;;
73593;SDS011;64760;53.404;23.498;2023-09-18T15:02:13;9.75;;;5.70;;
73593;SDS011;64760;53.404;23.498;2023-09-18T15:04:41;7.15;;;5.10;;
73593;SDS011;64760;53.404;23.498;2023-09-18T15:07:08;9.02;;;5.22;;
73593;SDS011;64760;53.404;23.498;2023-09-18T15:09:36;8.15;;;5.05;;
73593;SDS011;64760;53.404;23.498;2023-09-18T15:12:04;7.32;;;4.47;;
73593;SDS011;64760;53.404;23.498;2023-09-18T15:14:35;5.90;;;4.80;;
73593;SDS011;64760;53.404;23.498;2023-09-18T15:17:04;7.65;;;4.85;;
73593;SDS011;64760;53.404;23.498;2023-09-18T15:19:30;7.35;;;4.72;;
73593;SDS011;64760;53.404;23.498;2023-09-18T15:21:58;7.50;;;4.70;;
73593;SDS011;64760;53.404;23.498;2023-09-18T15:24:25;8.25;;;5.22;;
73593;SDS011;64760;53.404;23.498;2023-09-18T15:26:51;5.63;;;4.60;;
73593;SDS011;64760;53.404;23.498;2023-09-18T15:29:20;7.45;;;4.47;;
73593;SDS011;64760;53.404;23.498;2023-09-18T15:31:48;7.63;;;5.47;;
73593;SDS011;64760;53.404;23.498;2023-09-18T15:34:15;7.43;;;4.75;;
73593;SDS011;64760;53.404;23.498;2023-09-18T15:36:43;8.48;;;4.97;;
73593;SDS011;64760;53.404;23.498;2023-09-18T15:39:09;7.03;;;5.05;;
73593;SDS011;64760;53.404;23.498;2023-09-18T15:41:36;7.93;;;4.63;;